Etusivu
METAR-TAF:

METAR-TAF

Lentoasemat :

Ottumwa Industrial Airport

Ottumwa, Iowa, Yhdysvallat

Leveyspiiri: 41-06-24N, Pituuspiiri: 092-26-53W, korkeus merenpinnasta: 258 m

Tämänhetkinen sää

Tämä raportti tehtiin 51 minuuttia sitten, kello 11.53 UTC
Tuuli 6 kn lännestä/lounaasta
Lämpötila -7°C
Kosteus 86%
Ilmanpaine 1028 hPa
Näkyvyys: 16.1 km
selkeää

METAR: KOTM 151153Z AUTO 24006KT 10SM CLR M07/M09 A3035 RMK AO2 SLP289 T10671089 11056 21078 53002

Aika: 06:44 (12:44 UTC)

Sääennuste

Tämä raportti tehtiin 1 tunti ja 3 minuuttia sitten, kello 11.41 UTC
Ennuste voimassa 15. päivästä klo 12 UTC - 16. päivään klo 12 UTC
Tuuli 6 kn lounaasta
Näkyvyys: 10 km
Hajonneita pilviä 25000 ft:n korkeudessa
From 15. päivästä klo 1900 UTC
Tuuli 5 kn etelästä/kaakosta
Näkyvyys: 10 km
Hajonneita pilviä 25000 ft:n korkeudessa

TAF: KOTM 151141Z 1512/1612 22006KT P6SM BKN250 FM151900 15005KT P6SM BKN250

Säähavainnot ja -ennusteet yli 4000 lentoasemalta (METAR- ja TAF-raportit).

Käytössä olevat sääasemat on merkitty karttaan keltaisilla ja punaisilla pisteillä.

Aseta hiiri pisteen päälle nähdäksesi sääaseman nimen.

Klikkaa sitten nähdäksesi säähavainnot ja -ennusteet.

Kartan vaihtaminen: klikkaa mustalla rastilla varustettuja vihreitä pisteitä, niin voit zoomata sisään; viivalla varustettua vihreää pistettä, niin voit zoomata ulos tai vihreitä nuolia, niin pääset viereisille kartoille.


METAR-TAF: